createdAt,value
2023-03-18T00:01:27.020Z,52.30
2023-03-18T00:03:56.799Z,52.60
2023-03-18T00:06:25.006Z,52.70
2023-03-18T00:08:53.160Z,52.90
2023-03-18T00:11:22.699Z,52.00
2023-03-18T00:13:51.349Z,51.80
2023-03-18T00:16:21.265Z,51.30
2023-03-18T00:18:49.752Z,51.70
2023-03-18T00:21:19.483Z,50.60
2023-03-18T00:23:48.882Z,52.80
2023-03-18T00:26:17.531Z,50.10
2023-03-18T00:28:46.197Z,51.60
2023-03-18T00:31:15.531Z,52.40
2023-03-18T00:33:45.767Z,51.20
2023-03-18T00:36:15.066Z,50.40
2023-03-18T00:38:46.729Z,50.10
2023-03-18T00:41:16.046Z,49.50
2023-03-18T00:43:52.863Z,49.90
2023-03-18T00:46:24.714Z,50.00
2023-03-18T00:48:54.381Z,49.80
2023-03-18T00:51:24.890Z,51.60
2023-03-18T00:53:57.745Z,51.70
2023-03-18T00:56:27.804Z,49.80
2023-03-18T00:58:57.313Z,50.20
2023-03-18T01:01:26.549Z,50.20
2023-03-18T01:03:55.357Z,51.30
2023-03-18T01:06:25.797Z,51.30
2023-03-18T01:08:56.336Z,50.70
2023-03-18T01:11:25.200Z,52.00
2023-03-18T01:13:54.104Z,52.40
2023-03-18T01:16:22.986Z,51.90
2023-03-18T01:18:52.398Z,52.20
2023-03-18T01:21:20.571Z,50.30
2023-03-18T01:23:48.738Z,52.40
2023-03-18T01:26:19.072Z,51.30
2023-03-18T01:28:47.567Z,49.70
2023-03-18T01:31:16.121Z,49.00
2023-03-18T01:33:44.298Z,49.80
2023-03-18T01:36:13.023Z,51.90
2023-03-18T01:38:42.798Z,49.80
2023-03-18T01:41:12.078Z,50.80
2023-03-18T01:43:44.054Z,50.40
2023-03-18T01:46:43.548Z,51.10
2023-03-18T01:49:14.935Z,50.50
2023-03-18T01:51:47.438Z,50.00
2023-03-18T01:54:16.586Z,50.20
2023-03-18T01:56:47.515Z,49.90
2023-03-18T01:59:17.642Z,51.00
2023-03-18T02:01:51.531Z,50.70
2023-03-18T02:04:23.310Z,51.00
2023-03-18T02:06:51.489Z,50.20
2023-03-18T02:09:19.987Z,51.10
2023-03-18T02:11:50.778Z,50.80
2023-03-18T02:14:23.654Z,50.10
2023-03-18T02:16:57.263Z,50.20
2023-03-18T02:19:41.140Z,50.20
2023-03-18T02:22:17.710Z,49.80
2023-03-18T02:24:50.701Z,48.10
2023-03-18T02:27:21.452Z,50.40
2023-03-18T02:29:50.246Z,48.90
2023-03-18T02:32:20.197Z,48.70
2023-03-18T02:34:49.783Z,49.30
2023-03-18T02:37:17.968Z,49.40
2023-03-18T02:39:46.127Z,49.50
2023-03-18T02:42:15.575Z,50.80
2023-03-18T02:44:47.316Z,48.70
2023-03-18T02:47:20.856Z,49.20
2023-03-18T02:49:49.259Z,49.40
2023-03-18T02:52:17.427Z,49.50
2023-03-18T02:54:45.594Z,48.90
2023-03-18T02:57:13.751Z,49.50
2023-03-18T02:59:41.928Z,49.10
2023-03-18T03:02:11.835Z,48.60
2023-03-18T03:04:40.220Z,48.40
2023-03-18T03:07:08.436Z,49.50
2023-03-18T03:09:36.645Z,49.30
2023-03-18T03:12:05.143Z,48.80
2023-03-18T03:14:33.282Z,49.10
2023-03-18T03:17:01.447Z,49.40
2023-03-18T03:19:31.807Z,48.70
2023-03-18T03:22:00.715Z,49.30
2023-03-18T03:24:28.873Z,48.90
2023-03-18T03:26:57.076Z,45.90
2023-03-18T03:29:25.215Z,50.60
2023-03-18T03:31:53.347Z,50.30
2023-03-18T03:34:21.513Z,51.30
2023-03-18T03:36:51.105Z,50.80
2023-03-18T03:39:19.261Z,51.40
2023-03-18T03:41:47.420Z,51.10
2023-03-18T03:44:15.642Z,50.20
2023-03-18T03:46:43.853Z,51.10
2023-03-18T03:49:12.302Z,51.10
2023-03-18T03:51:40.427Z,50.40
2023-03-18T03:54:09.995Z,50.40
2023-03-18T03:56:40.369Z,50.50
2023-03-18T03:59:08.794Z,49.40
2023-03-18T04:01:37.034Z,49.80
2023-03-18T04:04:07.009Z,50.60
2023-03-18T04:06:35.187Z,50.70
2023-03-18T04:09:03.688Z,50.10
2023-03-18T04:11:33.428Z,52.10
2023-03-18T04:14:01.958Z,50.60
2023-03-18T04:16:30.225Z,50.70
2023-03-18T04:19:00.285Z,50.30
2023-03-18T04:21:28.467Z,48.90
2023-03-18T04:23:56.632Z,49.10
2023-03-18T04:26:24.809Z,50.40
2023-03-18T04:28:54.451Z,49.80
2023-03-18T04:31:22.782Z,51.00
2023-03-18T04:33:51.008Z,50.20
2023-03-18T04:36:19.211Z,49.80
2023-03-18T04:38:47.503Z,49.50
2023-03-18T04:41:15.693Z,51.80
2023-03-18T04:43:44.718Z,50.20
2023-03-18T04:46:14.900Z,50.80
2023-03-18T04:48:43.530Z,50.40
2023-03-18T04:51:12.653Z,50.30
2023-03-18T04:53:40.873Z,50.20
2023-03-18T04:56:09.952Z,50.80
2023-03-18T04:58:38.078Z,50.00
2023-03-18T05:01:06.600Z,50.50
2023-03-18T05:03:36.349Z,50.00
2023-03-18T05:06:04.749Z,49.90
2023-03-18T05:08:33.542Z,50.70
2023-03-18T05:11:02.084Z,49.50
2023-03-18T05:13:30.261Z,50.00
2023-03-18T05:15:59.210Z,49.60
2023-03-18T05:18:27.421Z,50.10
2023-03-18T05:20:57.014Z,48.10
2023-03-18T05:23:25.223Z,49.90
2023-03-18T05:25:53.464Z,48.00
2023-03-18T05:28:21.879Z,49.00
2023-03-18T05:30:50.262Z,46.90
2023-03-18T05:33:18.584Z,47.80
2023-03-18T05:35:47.097Z,47.90
2023-03-18T05:38:16.697Z,47.70
2023-03-18T05:40:44.831Z,48.20
2023-03-18T05:43:13.013Z,47.40
2023-03-18T05:45:41.254Z,48.00
2023-03-18T05:48:10.656Z,47.20
2023-03-18T05:50:40.404Z,47.70
2023-03-18T05:53:08.922Z,47.60
2023-03-18T05:55:39.947Z,46.80
2023-03-18T05:58:09.007Z,45.50
2023-03-18T06:00:38.271Z,46.00
2023-03-18T06:03:06.749Z,46.30
2023-03-18T06:05:35.918Z,46.00
2023-03-18T06:08:04.470Z,45.20
2023-03-18T06:10:33.538Z,46.20
2023-03-18T06:13:03.081Z,46.00
2023-03-18T06:15:32.290Z,44.40
2023-03-18T06:18:00.684Z,45.40
2023-03-18T06:20:28.955Z,45.30
2023-03-18T06:22:57.084Z,44.90
2023-03-18T06:25:25.403Z,44.50
2023-03-18T06:27:53.828Z,44.30
2023-03-18T06:30:23.482Z,42.90
2023-03-18T06:32:51.766Z,42.40
2023-03-18T06:35:20.087Z,43.10
2023-03-18T06:37:48.570Z,43.00
2023-03-18T06:40:17.432Z,43.70
2023-03-18T06:42:45.720Z,42.60
2023-03-18T06:45:15.290Z,43.10
2023-03-18T06:47:45.090Z,43.30
2023-03-18T06:50:13.658Z,43.90
2023-03-18T06:52:42.334Z,43.30
2023-03-18T06:55:11.179Z,43.90
2023-03-18T06:57:40.392Z,43.40
2023-03-18T07:00:10.524Z,44.10
2023-03-18T07:02:39.810Z,44.20
2023-03-18T07:05:12.798Z,42.20
2023-03-18T07:07:42.081Z,43.70
2023-03-18T07:10:19.226Z,44.10
2023-03-18T07:12:47.971Z,42.60
2023-03-18T07:15:16.290Z,42.90
2023-03-18T07:17:44.889Z,43.60
2023-03-18T07:20:15.405Z,43.30
2023-03-18T07:22:43.937Z,44.00
2023-03-18T07:25:13.371Z,44.00
2023-03-18T07:27:42.261Z,43.20
2023-03-18T07:30:12.475Z,43.40
2023-03-18T07:32:40.925Z,42.50
2023-03-18T07:35:10.835Z,43.30
2023-03-18T07:37:40.392Z,43.20
2023-03-18T07:40:09.786Z,43.50
2023-03-18T07:42:37.980Z,44.00
2023-03-18T07:45:07.758Z,44.00
2023-03-18T07:47:36.267Z,43.70
2023-03-18T07:50:04.682Z,43.30
2023-03-18T07:52:32.830Z,44.20
2023-03-18T07:55:02.392Z,45.40
2023-03-18T07:57:30.511Z,44.80
2023-03-18T07:59:58.679Z,43.80
2023-03-18T08:02:27.684Z,44.20
2023-03-18T08:04:56.697Z,43.90
2023-03-18T08:07:25.460Z,43.70
2023-03-18T08:09:53.761Z,44.60
2023-03-18T08:12:23.536Z,44.40
2023-03-18T08:14:51.681Z,43.90
2023-03-18T08:17:19.826Z,43.60
2023-03-18T08:19:49.021Z,42.70
2023-03-18T08:22:17.171Z,43.60
2023-03-18T08:24:45.761Z,43.90
2023-03-18T08:27:14.056Z,42.30
2023-03-18T08:29:43.599Z,43.10
2023-03-18T08:32:12.614Z,43.90
2023-03-18T08:34:41.581Z,42.40
2023-03-18T08:37:10.160Z,42.10
2023-03-18T08:39:38.297Z,42.60
2023-03-18T08:42:08.092Z,41.80
2023-03-18T08:44:36.264Z,41.60
2023-03-18T08:47:06.677Z,40.50
2023-03-18T08:49:34.843Z,41.40
2023-03-18T08:52:03.054Z,40.50
2023-03-18T08:54:31.301Z,41.00
2023-03-18T08:57:00.682Z,41.70
2023-03-18T08:59:28.920Z,41.60
2023-03-18T09:01:57.781Z,40.60
2023-03-18T09:04:27.377Z,40.70
2023-03-18T09:06:56.143Z,39.50
2023-03-18T09:09:31.002Z,38.70
2023-03-18T09:12:06.783Z,40.70
2023-03-18T09:14:35.185Z,41.50
2023-03-18T09:17:03.541Z,41.40
2023-03-18T09:19:33.333Z,40.60
2023-03-18T09:22:01.545Z,40.80
2023-03-18T09:24:29.730Z,40.40
2023-03-18T09:26:59.836Z,40.40
2023-03-18T09:29:28.562Z,40.50
2023-03-18T09:31:56.727Z,40.80
2023-03-18T09:34:26.450Z,41.00
2023-03-18T09:36:58.215Z,40.40
2023-03-18T09:39:27.250Z,40.00
2023-03-18T09:42:10.736Z,40.60
2023-03-18T09:44:39.757Z,42.00
2023-03-18T09:47:33.189Z,38.90
2023-03-18T09:50:21.657Z,39.80
2023-03-18T09:53:01.529Z,38.70
2023-03-18T09:55:40.154Z,38.40
2023-03-18T09:58:21.584Z,37.90
2023-03-18T10:00:52.726Z,38.70
2023-03-18T10:03:30.862Z,35.90
2023-03-18T10:06:04.472Z,36.80
2023-03-18T10:08:45.072Z,37.40
2023-03-18T10:11:22.033Z,36.50
2023-03-18T10:13:59.098Z,36.70
2023-03-18T10:16:31.881Z,36.60
2023-03-18T10:19:01.040Z,37.50
2023-03-18T10:21:41.708Z,36.10
2023-03-18T10:24:24.587Z,35.40
2023-03-18T10:26:59.899Z,34.30
2023-03-18T10:29:37.312Z,34.50
2023-03-18T10:32:12.478Z,34.90
2023-03-18T10:34:46.131Z,33.10
2023-03-18T10:37:23.569Z,31.00
2023-03-18T10:39:54.202Z,34.00
2023-03-18T10:42:25.468Z,31.50
2023-03-18T10:44:55.851Z,31.60
2023-03-18T10:47:29.122Z,31.70
2023-03-18T10:50:06.126Z,30.60
2023-03-18T10:52:39.152Z,32.00
2023-03-18T10:55:16.957Z,30.10
2023-03-18T10:57:45.754Z,28.80
2023-03-18T11:00:28.466Z,30.30
2023-03-18T11:02:58.229Z,30.00
2023-03-18T11:05:29.529Z,28.00
2023-03-18T11:08:00.805Z,27.70
2023-03-18T11:10:35.777Z,27.00
2023-03-18T11:13:06.283Z,28.90
2023-03-18T11:15:39.745Z,28.30
2023-03-18T11:18:18.419Z,27.90
2023-03-18T11:20:49.797Z,28.60
2023-03-18T11:23:20.658Z,28.20
2023-03-18T11:25:56.348Z,27.70
2023-03-18T11:28:29.318Z,27.40
2023-03-18T11:31:00.454Z,27.50
2023-03-18T11:33:33.322Z,27.70
2023-03-18T11:36:06.582Z,26.40
2023-03-18T11:38:36.603Z,26.40
2023-03-18T11:41:11.010Z,25.60
2023-03-18T11:43:39.377Z,25.70
2023-03-18T11:46:10.442Z,25.70
2023-03-18T11:48:40.407Z,26.60
2023-03-18T11:51:44.693Z,25.80
2023-03-18T11:54:28.030Z,26.20
2023-03-18T11:57:01.992Z,26.00
2023-03-18T11:59:57.658Z,25.90
2023-03-18T12:02:49.518Z,25.60
2023-03-18T12:05:53.219Z,25.20
2023-03-18T12:08:32.757Z,25.90
2023-03-18T12:11:12.984Z,26.20
2023-03-18T12:13:53.802Z,25.20
2023-03-18T12:16:36.465Z,23.70
2023-03-18T12:19:27.619Z,24.60
2023-03-18T12:22:23.596Z,24.90
2023-03-18T12:25:15.581Z,26.00
2023-03-18T12:27:54.045Z,25.60
2023-03-18T12:30:54.066Z,26.20
2023-03-18T12:33:36.298Z,26.80
2023-03-18T12:36:16.666Z,25.50
2023-03-18T12:39:21.286Z,25.40
2023-03-18T12:42:02.792Z,26.00
2023-03-18T12:44:58.926Z,25.90
2023-03-18T12:47:36.531Z,25.50
2023-03-18T12:50:09.032Z,25.90
2023-03-18T12:52:43.940Z,26.20
2023-03-18T12:55:18.066Z,25.90
2023-03-18T12:57:50.090Z,25.90
2023-03-18T13:00:24.700Z,26.60
2023-03-18T13:03:17.949Z,25.90
2023-03-18T13:05:52.450Z,26.70
2023-03-18T13:08:41.713Z,27.00
2023-03-18T13:11:18.342Z,27.00
2023-03-18T13:13:52.551Z,25.30
2023-03-18T13:16:23.404Z,26.70
2023-03-18T13:18:56.763Z,27.00
2023-03-18T13:21:29.636Z,27.20
2023-03-18T13:24:29.479Z,25.70
2023-03-18T13:27:29.007Z,25.90
2023-03-18T13:30:06.189Z,24.40
2023-03-18T13:32:50.822Z,24.70
2023-03-18T13:35:50.624Z,24.60
2023-03-18T13:38:38.103Z,24.80
2023-03-18T13:41:25.494Z,25.20
2023-03-18T13:43:56.656Z,24.50
2023-03-18T13:46:28.924Z,25.00
2023-03-18T13:48:58.767Z,25.60
2023-03-18T13:51:54.553Z,26.10
2023-03-18T13:54:23.102Z,26.20
2023-03-18T13:56:55.610Z,25.90
2023-03-18T13:59:49.504Z,26.50
2023-03-18T14:02:43.669Z,25.80
2023-03-18T14:05:35.353Z,25.00
2023-03-18T14:08:28.223Z,26.40
2023-03-18T14:11:29.604Z,27.30
2023-03-18T14:14:00.604Z,27.70
2023-03-18T14:16:31.225Z,26.80
2023-03-18T14:19:02.250Z,26.60
2023-03-18T14:21:32.866Z,26.50
2023-03-18T14:24:13.285Z,26.80
2023-03-18T14:26:42.646Z,26.90
2023-03-18T14:29:23.718Z,27.00
2023-03-18T14:31:57.748Z,27.70
2023-03-18T14:34:28.055Z,27.70
2023-03-18T14:37:19.275Z,26.90
2023-03-18T14:39:53.040Z,27.20
2023-03-18T14:42:46.878Z,26.80
2023-03-18T14:45:20.785Z,27.60
2023-03-18T14:47:52.018Z,27.80
2023-03-18T14:50:33.796Z,28.10
2023-03-18T14:53:07.242Z,28.60
2023-03-18T14:55:38.547Z,29.20
2023-03-18T14:58:07.098Z,28.70
2023-03-18T15:00:37.373Z,28.10
2023-03-18T15:03:08.371Z,28.60
2023-03-18T15:05:38.894Z,29.10
2023-03-18T15:08:15.183Z,29.30
2023-03-18T15:10:48.902Z,28.70
2023-03-18T15:13:19.234Z,29.10
2023-03-18T15:15:47.843Z,29.10
2023-03-18T15:18:20.049Z,28.80
2023-03-18T15:20:52.691Z,29.10
2023-03-18T15:23:27.902Z,28.60
2023-03-18T15:25:57.741Z,28.90
2023-03-18T15:28:29.313Z,29.10
2023-03-18T15:30:59.808Z,29.00
2023-03-18T15:33:32.162Z,29.20
2023-03-18T15:36:06.349Z,29.40
2023-03-18T15:38:35.086Z,29.00
2023-03-18T15:41:07.404Z,29.50
2023-03-18T15:43:42.276Z,28.90
2023-03-18T15:46:18.751Z,29.40
2023-03-18T15:48:54.673Z,29.40
2023-03-18T15:51:30.053Z,29.60
2023-03-18T15:53:59.880Z,30.10
2023-03-18T15:56:31.531Z,30.50
2023-03-18T15:59:06.828Z,30.90
2023-03-18T16:01:36.312Z,31.50
2023-03-18T16:04:07.606Z,32.10
2023-03-18T16:06:36.888Z,31.70
2023-03-18T16:09:15.737Z,31.60
2023-03-18T16:11:47.373Z,31.20
2023-03-18T16:14:17.759Z,31.30
2023-03-18T16:16:46.229Z,33.70
2023-03-18T16:19:16.754Z,31.30
2023-03-18T16:21:45.654Z,32.90
2023-03-18T16:24:13.835Z,32.50
2023-03-18T16:26:42.428Z,33.20
2023-03-18T16:29:18.190Z,33.20
2023-03-18T16:31:48.586Z,33.30
2023-03-18T16:34:21.242Z,33.30
2023-03-18T16:36:51.233Z,34.10
2023-03-18T16:39:21.767Z,33.90
2023-03-18T16:41:50.071Z,34.10
2023-03-18T16:44:21.347Z,34.10
2023-03-18T16:46:53.911Z,34.30
2023-03-18T16:49:24.236Z,35.00
2023-03-18T16:51:53.521Z,35.60
2023-03-18T16:54:24.836Z,34.90
2023-03-18T16:56:55.960Z,34.30
2023-03-18T16:59:30.094Z,34.90
2023-03-18T17:01:58.286Z,35.70
2023-03-18T17:04:29.393Z,36.00
2023-03-18T17:06:59.038Z,35.30
2023-03-18T17:09:28.073Z,35.70
2023-03-18T17:11:59.924Z,36.10
2023-03-18T17:14:37.523Z,36.10
2023-03-18T17:17:08.499Z,36.10
2023-03-18T17:19:36.793Z,35.90
2023-03-18T17:22:15.232Z,36.10
2023-03-18T17:24:43.372Z,36.40
2023-03-18T17:27:17.651Z,36.20
2023-03-18T17:29:47.390Z,36.60
2023-03-18T17:32:16.253Z,36.40
2023-03-18T17:34:45.732Z,36.40
2023-03-18T17:37:13.879Z,36.20
2023-03-18T17:39:42.064Z,36.90
2023-03-18T17:42:26.248Z,36.20
2023-03-18T17:44:55.921Z,37.50
2023-03-18T17:47:24.106Z,36.20
2023-03-18T17:49:52.367Z,35.70
2023-03-18T17:52:21.980Z,35.80
2023-03-18T17:54:50.246Z,35.90
2023-03-18T17:57:19.287Z,35.40
2023-03-18T17:59:47.634Z,35.50
2023-03-18T18:02:18.549Z,35.60
2023-03-18T18:04:46.939Z,35.60
2023-03-18T18:07:20.171Z,35.80
2023-03-18T18:09:49.495Z,35.90
2023-03-18T18:12:22.974Z,36.20
2023-03-18T18:14:51.618Z,35.90
2023-03-18T18:17:21.937Z,35.60
2023-03-18T18:19:50.080Z,36.10
2023-03-18T18:22:20.812Z,36.30
2023-03-18T18:24:50.489Z,36.60
2023-03-18T18:27:18.686Z,36.70
2023-03-18T18:29:47.033Z,36.00
2023-03-18T18:32:15.466Z,36.30
2023-03-18T18:34:45.314Z,35.40
2023-03-18T18:37:13.716Z,36.20
2023-03-18T18:39:42.583Z,35.50
2023-03-18T18:42:13.643Z,35.70
2023-03-18T18:44:43.386Z,35.60
2023-03-18T18:47:19.421Z,35.60
2023-03-18T18:49:49.384Z,36.10
2023-03-18T18:52:18.010Z,36.30
2023-03-18T18:54:46.252Z,36.00
2023-03-18T18:57:26.666Z,36.50
2023-03-18T18:59:54.952Z,36.20
2023-03-18T19:02:33.760Z,36.90
2023-03-18T19:05:04.811Z,37.20
2023-03-18T19:07:34.587Z,37.70
2023-03-18T19:10:05.653Z,37.00
2023-03-18T19:12:34.245Z,37.20
2023-03-18T19:15:02.997Z,37.30
2023-03-18T19:17:31.279Z,37.60
2023-03-18T19:20:02.097Z,36.70
2023-03-18T19:22:32.294Z,36.90
2023-03-18T19:25:00.511Z,37.30
2023-03-18T19:27:31.344Z,37.00
2023-03-18T19:30:01.503Z,37.60
2023-03-18T19:32:30.178Z,37.20
2023-03-18T19:34:58.340Z,37.40
2023-03-18T19:37:29.415Z,37.50
2023-03-18T19:40:00.624Z,37.50
2023-03-18T19:42:32.232Z,36.20
2023-03-18T19:45:00.413Z,36.50
2023-03-18T19:47:31.254Z,36.80
2023-03-18T19:50:01.220Z,36.50
2023-03-18T19:52:30.595Z,36.30
2023-03-18T19:55:02.712Z,36.70
2023-03-18T19:57:32.952Z,37.30
2023-03-18T20:00:05.048Z,36.40
2023-03-18T20:02:34.888Z,35.60
2023-03-18T20:05:06.401Z,36.50
2023-03-18T20:07:34.535Z,36.80
2023-03-18T20:10:10.865Z,36.20
2023-03-18T20:12:41.281Z,36.40
2023-03-18T20:15:15.523Z,35.90
2023-03-18T20:17:46.027Z,36.20
2023-03-18T20:20:16.860Z,37.20
2023-03-18T20:22:52.975Z,36.20
2023-03-18T20:25:32.195Z,37.40
2023-03-18T20:28:04.821Z,37.10
2023-03-18T20:30:38.228Z,37.30
2023-03-18T20:33:07.722Z,37.60
2023-03-18T20:35:38.875Z,37.50
2023-03-18T20:38:14.792Z,37.60
2023-03-18T20:40:47.663Z,38.90
2023-03-18T20:43:21.339Z,38.00
2023-03-18T20:45:51.446Z,38.00
2023-03-18T20:48:19.915Z,38.60
2023-03-18T20:50:48.738Z,37.80
2023-03-18T20:53:20.146Z,38.40
2023-03-18T20:55:56.107Z,38.10
2023-03-18T20:58:26.497Z,38.20
2023-03-18T21:00:57.590Z,39.60
2023-03-18T21:03:28.617Z,38.70
2023-03-18T21:05:59.427Z,39.30
2023-03-18T21:08:29.036Z,40.60
2023-03-18T21:11:01.821Z,40.50
2023-03-18T21:13:32.938Z,40.20
2023-03-18T21:16:02.211Z,40.60
2023-03-18T21:18:30.603Z,41.30
2023-03-18T21:20:59.166Z,41.00
2023-03-18T21:23:29.531Z,40.00
2023-03-18T21:25:59.556Z,40.20
2023-03-18T21:28:30.626Z,40.10
2023-03-18T21:31:01.496Z,40.60
2023-03-18T21:33:32.797Z,40.80
2023-03-18T21:36:04.902Z,41.50
2023-03-18T21:38:35.146Z,41.00
2023-03-18T21:41:16.845Z,42.50
2023-03-18T21:43:45.106Z,42.40
2023-03-18T21:46:18.153Z,40.70
2023-03-18T21:48:46.752Z,41.60
2023-03-18T21:51:37.511Z,41.90
2023-03-18T21:54:06.759Z,42.30
2023-03-18T21:56:36.382Z,42.10
2023-03-18T21:59:04.538Z,42.50
2023-03-18T22:01:33.152Z,42.10
2023-03-18T22:04:01.358Z,42.00
2023-03-18T22:06:29.950Z,41.90
2023-03-18T22:09:00.208Z,43.70
2023-03-18T22:11:29.085Z,42.60
2023-03-18T22:13:58.633Z,43.60
2023-03-18T22:16:26.853Z,43.30
2023-03-18T22:18:55.050Z,42.90
2023-03-18T22:21:26.070Z,42.90
2023-03-18T22:23:55.020Z,43.50
2023-03-18T22:26:23.349Z,43.50
2023-03-18T22:28:51.577Z,42.10
2023-03-18T22:31:22.714Z,42.60
2023-03-18T22:33:56.256Z,43.10
2023-03-18T22:36:27.894Z,43.10
2023-03-18T22:38:56.245Z,42.20
2023-03-18T22:41:29.322Z,43.40
2023-03-18T22:44:00.054Z,43.90
2023-03-18T22:46:30.081Z,43.90
2023-03-18T22:48:58.552Z,44.10
2023-03-18T22:51:30.873Z,44.00
2023-03-18T22:53:59.189Z,43.80
2023-03-18T22:56:27.407Z,44.20
2023-03-18T22:58:56.058Z,43.80
2023-03-18T23:01:31.161Z,43.90
2023-03-18T23:04:00.172Z,44.40
2023-03-18T23:06:28.586Z,44.00
2023-03-18T23:08:56.894Z,44.20
2023-03-18T23:11:25.066Z,46.00
2023-03-18T23:13:53.921Z,46.10
2023-03-18T23:16:25.955Z,45.20
2023-03-18T23:18:55.664Z,45.30
2023-03-18T23:21:25.734Z,46.20
2023-03-18T23:23:54.945Z,44.90
2023-03-18T23:26:23.100Z,44.80
2023-03-18T23:28:51.739Z,44.50
2023-03-18T23:31:19.945Z,44.80
2023-03-18T23:33:48.231Z,45.10
2023-03-18T23:36:17.856Z,45.60
2023-03-18T23:38:46.000Z,45.80
2023-03-18T23:41:14.188Z,45.20
2023-03-18T23:43:42.349Z,46.20
2023-03-18T23:46:10.584Z,45.30
2023-03-18T23:48:38.759Z,45.60
2023-03-18T23:51:07.155Z,47.30
2023-03-18T23:53:36.669Z,46.10
2023-03-18T23:56:04.914Z,47.40
2023-03-18T23:58:33.086Z,47.70
